createdAt,value
2018-12-03T00:02:07.563Z,12.03
2018-12-03T00:06:16.149Z,12.10
2018-12-03T00:10:23.745Z,12.05
2018-12-03T00:14:31.657Z,12.15
2018-12-03T00:18:39.034Z,12.04
2018-12-03T00:22:47.182Z,12.06
2018-12-03T00:26:54.705Z,12.05
2018-12-03T00:31:02.167Z,12.05
2018-12-03T00:35:11.026Z,11.99
2018-12-03T00:39:18.772Z,11.93
2018-12-03T00:43:27.959Z,11.91
2018-12-03T00:47:35.430Z,11.88
2018-12-03T00:51:43.247Z,11.84
2018-12-03T00:55:50.804Z,11.83
2018-12-03T00:59:58.210Z,11.84
2018-12-03T01:04:07.215Z,11.83
2018-12-03T01:08:14.780Z,11.87
2018-12-03T01:12:22.320Z,11.84
2018-12-03T01:16:29.827Z,11.81
2018-12-03T01:20:37.311Z,11.78
2018-12-03T01:24:46.171Z,11.81
2018-12-03T01:28:53.666Z,11.80
2018-12-03T01:33:00.993Z,11.73
2018-12-03T01:37:09.590Z,11.64
2018-12-03T01:41:17.135Z,11.70
2018-12-03T01:45:24.505Z,11.68
2018-12-03T01:49:32.139Z,11.69
2018-12-03T01:53:42.203Z,11.70
2018-12-03T01:57:49.638Z,11.69
2018-12-03T02:01:57.207Z,11.71
2018-12-03T02:06:05.044Z,11.75
2018-12-03T02:10:17.197Z,11.70
2018-12-03T02:14:24.956Z,11.74
2018-12-03T02:18:32.623Z,11.72
2018-12-03T02:22:40.504Z,11.77
2018-12-03T02:26:48.476Z,11.73
2018-12-03T02:30:56.017Z,11.72
2018-12-03T02:35:03.937Z,11.81
2018-12-03T02:39:12.094Z,11.76
2018-12-03T02:43:19.927Z,11.82
2018-12-03T02:47:27.362Z,11.77
2018-12-03T02:51:34.743Z,11.82
2018-12-03T02:55:42.167Z,11.78
2018-12-03T02:59:49.574Z,11.78
2018-12-03T03:03:57.116Z,11.87
2018-12-03T03:08:04.795Z,11.85
2018-12-03T03:12:12.323Z,11.88
2018-12-03T03:16:19.926Z,11.85
2018-12-03T03:20:27.393Z,11.80
2018-12-03T03:24:35.127Z,11.82
2018-12-03T03:28:42.650Z,11.83
2018-12-03T03:32:50.026Z,11.77
2018-12-03T03:36:57.423Z,11.76
2018-12-03T03:41:05.120Z,11.79
2018-12-03T03:45:25.023Z,11.79
2018-12-03T03:49:32.926Z,11.78
2018-12-03T03:53:40.485Z,11.83
2018-12-03T03:57:48.135Z,11.84
2018-12-03T04:01:55.582Z,11.83
2018-12-03T04:06:03.361Z,11.87
2018-12-03T04:10:56.425Z,11.93
2018-12-03T04:15:03.825Z,11.84
2018-12-03T04:19:11.562Z,11.88
2018-12-03T04:23:19.064Z,11.82
2018-12-03T04:27:26.630Z,11.82
2018-12-03T04:31:34.452Z,11.82
2018-12-03T04:35:43.864Z,11.80
2018-12-03T04:39:51.535Z,11.89
2018-12-03T04:43:58.964Z,11.84
2018-12-03T04:48:06.815Z,11.92
2018-12-03T04:52:14.263Z,11.97
2018-12-03T04:56:21.761Z,11.96
2018-12-03T05:00:29.274Z,12.00
2018-12-03T05:04:37.178Z,12.01
2018-12-03T05:08:44.884Z,12.02
2018-12-03T05:12:56.162Z,12.05
2018-12-03T05:17:03.664Z,12.05
2018-12-03T05:21:11.062Z,12.06
2018-12-03T05:25:19.505Z,12.10
2018-12-03T05:29:27.140Z,12.19
2018-12-03T05:33:35.169Z,12.19
2018-12-03T05:37:42.761Z,12.02
2018-12-03T05:41:50.299Z,12.01
2018-12-03T05:45:57.979Z,12.00
2018-12-03T05:50:06.996Z,11.95
2018-12-03T05:54:14.698Z,11.96
2018-12-03T05:58:22.530Z,11.92
2018-12-03T06:02:44.563Z,11.93
2018-12-03T06:06:53.938Z,11.96
2018-12-03T06:11:01.879Z,12.00
2018-12-03T06:15:17.695Z,11.99
2018-12-03T06:19:25.331Z,11.99
2018-12-03T06:23:33.581Z,12.05
2018-12-03T06:27:45.296Z,12.07
2018-12-03T06:31:53.244Z,12.09
2018-12-03T06:36:01.068Z,12.07
2018-12-03T06:40:26.951Z,12.10
2018-12-03T06:44:34.901Z,12.11
2018-12-03T06:48:42.822Z,12.12
2018-12-03T06:52:51.312Z,12.43
2018-12-03T06:56:59.011Z,12.20
2018-12-03T07:01:09.726Z,12.18
2018-12-03T07:05:17.668Z,12.21
2018-12-03T07:09:25.705Z,12.21
2018-12-03T07:13:33.153Z,12.23
2018-12-03T07:17:40.813Z,12.23
2018-12-03T07:21:48.252Z,12.26
2018-12-03T07:25:55.642Z,12.26
2018-12-03T07:30:05.151Z,12.28
2018-12-03T07:34:12.599Z,12.32
2018-12-03T07:38:20.726Z,12.32
2018-12-03T07:42:28.832Z,12.35
2018-12-03T07:46:41.173Z,12.34
2018-12-03T07:50:49.068Z,12.34
2018-12-03T07:54:58.176Z,12.29
2018-12-03T07:59:07.874Z,12.25
2018-12-03T08:03:18.697Z,12.26
2018-12-03T08:07:26.861Z,12.22
2018-12-03T08:11:34.728Z,12.21
2018-12-03T08:15:42.319Z,12.21
2018-12-03T08:19:56.546Z,12.24
2018-12-03T08:24:14.919Z,12.29
2018-12-03T08:28:22.276Z,12.35
2018-12-03T08:32:31.814Z,12.43
2018-12-03T08:36:39.325Z,12.56
2018-12-03T08:40:50.287Z,12.61
2018-12-03T08:45:01.600Z,12.92
2018-12-03T08:49:12.757Z,13.15
2018-12-03T08:53:22.825Z,13.13
2018-12-03T08:57:30.428Z,12.98
2018-12-03T09:01:39.495Z,12.93
2018-12-03T09:05:47.676Z,13.43
2018-12-03T09:09:56.040Z,13.88
2018-12-03T09:14:04.696Z,14.11
2018-12-03T09:18:15.656Z,13.76
2018-12-03T09:22:23.647Z,13.68
2018-12-03T09:26:39.565Z,13.50
2018-12-03T09:30:50.540Z,13.43
2018-12-03T09:35:02.161Z,13.59
2018-12-03T09:39:21.039Z,13.36
2018-12-03T09:43:30.590Z,13.44
2018-12-03T09:47:41.851Z,13.35
2018-12-03T09:51:49.655Z,13.31
2018-12-03T09:55:57.604Z,13.18
2018-12-03T10:00:10.217Z,13.23
2018-12-03T10:04:32.170Z,13.20
2018-12-03T10:08:39.833Z,13.17
2018-12-03T10:12:47.653Z,13.14
2018-12-03T10:16:55.082Z,13.09
2018-12-03T10:21:03.961Z,12.97
2018-12-03T10:25:22.847Z,12.98
2018-12-03T10:29:32.305Z,12.94
2018-12-03T10:33:41.700Z,12.96
2018-12-03T10:37:50.097Z,12.91
2018-12-03T10:42:24.121Z,12.89
2018-12-03T10:46:33.674Z,12.84
2018-12-03T10:50:45.650Z,12.85
2018-12-03T10:54:54.801Z,12.86
2018-12-03T10:59:04.392Z,12.96
2018-12-03T11:03:34.922Z,12.92
2018-12-03T11:07:42.648Z,13.00
2018-12-03T11:11:54.578Z,12.96
2018-12-03T11:16:02.313Z,13.00
2018-12-03T11:20:15.034Z,13.01
2018-12-03T11:24:22.422Z,13.02
2018-12-03T11:29:00.802Z,13.02
2018-12-03T11:33:09.071Z,12.96
2018-12-03T11:37:22.588Z,12.95
2018-12-03T11:41:39.611Z,12.96
2018-12-03T11:45:50.085Z,12.88
2018-12-03T11:50:01.016Z,12.83
2018-12-03T11:54:11.717Z,12.82
2018-12-03T11:58:20.058Z,12.88
2018-12-03T12:02:30.267Z,12.70
2018-12-03T12:06:39.237Z,12.69
2018-12-03T12:10:47.312Z,12.67
2018-12-03T12:14:57.332Z,12.61
2018-12-03T12:19:08.378Z,12.57
2018-12-03T12:23:19.817Z,12.52
2018-12-03T12:27:37.657Z,12.49
2018-12-03T12:31:48.133Z,12.40
2018-12-03T12:35:57.280Z,12.28
2018-12-03T12:40:13.490Z,12.31
2018-12-03T12:44:24.003Z,12.25
2018-12-03T12:48:35.961Z,12.28
2018-12-03T12:52:47.932Z,12.26
2018-12-03T12:57:02.924Z,12.28
2018-12-03T13:01:18.253Z,12.25
2018-12-03T13:05:39.633Z,12.24
2018-12-03T13:09:49.606Z,12.27
2018-12-03T13:14:00.615Z,12.28
2018-12-03T13:18:14.579Z,12.19
2018-12-03T13:22:49.751Z,12.06
2018-12-03T13:27:10.495Z,11.96
2018-12-03T13:31:23.518Z,11.90
2018-12-03T13:35:33.126Z,11.83
2018-12-03T13:39:50.337Z,11.77
2018-12-03T13:44:01.660Z,11.73
2018-12-03T13:48:19.281Z,11.73
2018-12-03T13:52:27.231Z,11.77
2018-12-03T13:57:07.167Z,11.77
2018-12-03T14:01:16.045Z,11.68
2018-12-03T14:05:37.017Z,11.66
2018-12-03T14:10:56.743Z,11.69
2018-12-03T14:15:50.520Z,11.57
2018-12-03T14:20:02.849Z,11.54
2018-12-03T14:24:23.586Z,11.49
2018-12-03T14:28:36.277Z,11.52
2018-12-03T14:32:47.391Z,11.48
2018-12-03T14:36:58.335Z,11.43
2018-12-03T14:41:07.554Z,11.46
2018-12-03T14:45:19.507Z,11.42
2018-12-03T14:49:31.875Z,11.41
2018-12-03T14:53:42.139Z,11.31
2018-12-03T14:57:50.076Z,11.29
2018-12-03T15:02:04.929Z,11.33
2018-12-03T15:06:20.734Z,11.33
2018-12-03T15:10:35.526Z,11.32
2018-12-03T15:14:49.846Z,11.31
2018-12-03T15:18:57.386Z,11.36
2018-12-03T15:23:06.245Z,11.35
2018-12-03T15:27:27.618Z,11.31
2018-12-03T15:31:44.720Z,11.31
2018-12-03T15:35:55.732Z,11.35
2018-12-03T15:40:12.017Z,11.36
2018-12-03T15:44:31.556Z,11.30
2018-12-03T15:48:41.564Z,11.30
2018-12-03T15:52:53.238Z,11.27
2018-12-03T15:57:04.660Z,11.32
2018-12-03T16:01:14.547Z,11.26
2018-12-03T16:05:29.317Z,11.22
2018-12-03T16:09:39.763Z,11.17
2018-12-03T16:13:47.380Z,11.19
2018-12-03T16:18:00.315Z,11.11
2018-12-03T16:22:15.036Z,11.03
2018-12-03T16:26:28.893Z,10.97
2018-12-03T16:30:36.708Z,10.95
2018-12-03T16:34:59.466Z,10.95
2018-12-03T16:39:24.195Z,10.93
2018-12-03T16:43:37.575Z,10.88
2018-12-03T16:47:54.910Z,10.80
2018-12-03T16:52:04.717Z,10.86
2018-12-03T16:56:17.976Z,10.88
2018-12-03T17:01:08.310Z,10.85
2018-12-03T17:05:46.470Z,10.83
2018-12-03T17:09:57.119Z,10.93
2018-12-03T17:14:24.307Z,10.96
2018-12-03T17:18:53.565Z,10.99
2018-12-03T17:24:17.783Z,10.99
2018-12-03T17:28:36.338Z,10.98
2018-12-03T17:37:35.667Z,11.07
2018-12-03T17:41:46.638Z,11.02
2018-12-03T17:46:03.499Z,11.12
2018-12-03T17:50:58.268Z,11.11
2018-12-03T17:55:16.734Z,11.10
2018-12-03T17:59:37.231Z,11.12
2018-12-03T18:03:44.953Z,11.09
2018-12-03T18:08:01.484Z,11.10
2018-12-03T18:12:11.499Z,11.10
2018-12-03T18:16:34.910Z,11.04
2018-12-03T18:20:48.092Z,11.02
2018-12-03T18:25:02.382Z,10.98
2018-12-03T18:29:17.256Z,10.96
2018-12-03T18:33:34.303Z,10.97
2018-12-03T18:37:52.881Z,10.92
2018-12-03T18:42:08.569Z,10.93
2018-12-03T18:46:16.373Z,10.98
2018-12-03T18:50:40.465Z,10.91
2018-12-03T18:55:21.016Z,10.89
2018-12-03T18:59:42.127Z,10.92
2018-12-03T19:04:28.768Z,10.89
2018-12-03T19:08:38.814Z,10.87
2018-12-03T19:12:47.286Z,10.85
2018-12-03T19:17:51.596Z,10.82
2018-12-03T19:22:03.896Z,10.84
2018-12-03T19:26:19.877Z,10.77
2018-12-03T19:30:29.208Z,10.84
2018-12-03T19:34:45.215Z,10.79
2018-12-03T19:38:57.362Z,10.79
2018-12-03T19:43:08.562Z,10.82
2018-12-03T19:47:16.509Z,10.89
2018-12-03T19:51:24.919Z,10.84
2018-12-03T19:55:35.859Z,10.82
2018-12-03T19:59:50.387Z,10.82
2018-12-03T20:03:58.629Z,10.86
2018-12-03T20:08:06.703Z,10.79
2018-12-03T20:12:14.598Z,10.79
2018-12-03T20:16:23.268Z,10.80
2018-12-03T20:21:07.588Z,10.83
2018-12-03T20:25:22.915Z,10.84
2018-12-03T20:29:50.254Z,10.81
2018-12-03T20:34:46.095Z,10.81
2018-12-03T20:39:39.380Z,10.78
2018-12-03T20:43:55.846Z,10.81
2018-12-03T20:48:03.282Z,10.84
2018-12-03T20:52:28.910Z,10.85
2018-12-03T20:56:39.188Z,10.84
2018-12-03T21:00:47.210Z,10.87
2018-12-03T21:04:57.936Z,10.92
2018-12-03T21:09:09.071Z,10.88
2018-12-03T21:13:18.311Z,10.91
2018-12-03T21:17:28.515Z,10.95
2018-12-03T21:21:37.289Z,10.96
2018-12-03T21:25:46.458Z,10.98
2018-12-03T21:29:54.929Z,10.98
2018-12-03T21:34:06.717Z,11.02
2018-12-03T21:38:14.898Z,10.96
2018-12-03T21:42:29.687Z,11.03
2018-12-03T21:46:38.298Z,10.98
2018-12-03T21:50:46.477Z,10.95
2018-12-03T21:55:07.825Z,11.00
2018-12-03T21:59:15.311Z,10.94
2018-12-03T22:03:34.874Z,10.96
2018-12-03T22:07:45.060Z,10.87
2018-12-03T22:11:55.373Z,10.86
2018-12-03T22:16:24.103Z,10.88
2018-12-03T22:21:03.451Z,10.90
2018-12-03T22:25:15.290Z,10.93
2018-12-03T22:29:30.530Z,10.95
2018-12-03T22:34:03.922Z,10.97
2018-12-03T22:38:31.543Z,10.97
2018-12-03T22:42:46.544Z,10.99
2018-12-03T22:47:07.114Z,11.04
2018-12-03T22:51:32.002Z,11.09
2018-12-03T22:55:43.223Z,11.14
2018-12-03T23:00:44.900Z,11.19
2018-12-03T23:05:29.072Z,11.23
2018-12-03T23:10:00.049Z,11.22
2018-12-03T23:14:37.964Z,11.27
2018-12-03T23:19:04.058Z,11.33
2018-12-03T23:23:49.639Z,11.29
2018-12-03T23:28:21.286Z,11.24
2018-12-03T23:32:42.899Z,11.23
2018-12-03T23:37:36.782Z,11.13
2018-12-03T23:41:43.106Z,11.12
2018-12-03T23:46:31.019Z,11.08
2018-12-03T23:50:50.597Z,11.09
2018-12-03T23:55:12.365Z,11.18
2018-12-03T23:59:22.669Z,11.22
